Time,TemperatureF,DewpointF,PressureIn,WindDirection,WindDirectionDegrees,WindSpeedMPH,WindSpeedGustMPH,Humidity,HourlyPrecipIn,Conditions,Clouds,dailyrainin,SoftwareType,DateUTC
2013-10-04 00:00:00,56.0,41.9,30.66,South,180,0.0,4.0,59,0.00,CLR,,0.00,WeatherDisplay:10.37,2013-10-04 07:00:00,
2013-10-04 00:10:00,53.0,41.1,30.67,ESE,118,0.0,3.0,64,0.00,CLR,,0.00,WeatherDisplay:10.37,2013-10-04 07:10:00,
2013-10-04 00:20:00,52.0,41.0,30.69,NNE,31,0.0,5.0,66,0.00,CLR,,0.00,WeatherDisplay:10.37,2013-10-04 07:20:00,
2013-10-04 00:30:00,52.0,41.4,30.69,ENE,66,2.0,6.0,67,0.00,CLR,,0.00,WeatherDisplay:10.37,2013-10-04 07:30:00,
2013-10-04 00:40:00,51.0,41.6,30.69,ENE,67,2.0,3.0,70,0.00,CLR,,0.00,WeatherDisplay:10.37,2013-10-04 07:40:00,
2013-10-04 00:50:00,49.0,41.4,30.70,ENE,58,1.0,4.0,75,0.00,CLR,,0.00,WeatherDisplay:10.37,2013-10-04 07:50:00,
2013-10-04 01:00:00,49.0,42.1,30.71,North,360,0.0,2.0,77,0.00,CLR,,0.00,WeatherDisplay:10.37,2013-10-04 08:00:00,
2013-10-04 01:10:00,49.0,41.4,30.70,North,360,0.0,3.0,75,0.00,CLR,,0.00,WeatherDisplay:10.37,2013-10-04 08:10:00,
2013-10-04 01:20:00,49.0,41.8,30.71,North,360,1.0,3.0,76,0.00,CLR,,0.00,WeatherDisplay:10.37,2013-10-04 08:20:00,
2013-10-04 01:30:00,49.0,42.1,30.71,North,360,0.0,2.0,77,0.00,CLR,,0.00,WeatherDisplay:10.37,2013-10-04 08:30:00,
2013-10-04 01:40:00,50.0,43.1,30.71,North,360,0.0,0.0,77,0.00,CLR,,0.00,WeatherDisplay:10.37,2013-10-04 08:40:00,
2013-10-04 01:50:00,50.0,43.1,30.70,North,360,0.0,0.0,77,0.00,CLR,,0.00,WeatherDisplay:10.37,2013-10-04 08:50:00,
2013-10-04 02:00:00,51.0,43.7,30.70,North,356,0.0,0.0,76,0.00,CLR,,0.00,WeatherDisplay:10.37,2013-10-04 09:00:00,
2013-10-04 02:10:00,51.0,43.4,30.70,NNW,334,0.0,5.0,75,0.00,CLR,,0.00,WeatherDisplay:10.37,2013-10-04 09:10:00,
2013-10-04 02:20:00,51.0,42.6,30.69,ESE,112,0.0,0.0,73,0.00,CLR,,0.00,WeatherDisplay:10.37,2013-10-04 09:20:00,
2013-10-04 02:30:00,50.0,42.7,30.70,ESE,112,0.0,2.0,76,0.00,CLR,,0.00,WeatherDisplay:10.37,2013-10-04 09:30:00,
2013-10-04 02:40:00,50.0,43.1,30.70,ESE,103,0.0,2.0,77,0.00,CLR,,0.00,WeatherDisplay:10.37,2013-10-04 09:40:00,
2013-10-04 02:50:00,50.0,43.4,30.70,ENE,62,0.0,6.0,78,0.00,CLR,,0.00,WeatherDisplay:10.37,2013-10-04 09:50:00,
2013-10-04 03:00:00,49.0,42.4,30.71,NNE,22,0.0,5.0,78,0.00,CLR,,0.00,WeatherDisplay:10.37,2013-10-04 10:00:00,
2013-10-04 03:10:00,49.0,43.7,30.71,WNW,295,0.0,5.0,82,0.00,CLR,,0.00,WeatherDisplay:10.37,2013-10-04 10:10:00,
2013-10-04 03:20:00,48.0,43.1,30.72,West,270,2.0,4.0,83,0.00,CLR,,0.00,WeatherDisplay:10.37,2013-10-04 10:20:00,
2013-10-04 03:30:00,49.0,44.4,30.72,West,270,2.0,4.0,84,0.00,CLR,,0.00,WeatherDisplay:10.37,2013-10-04 10:30:00,
2013-10-04 03:40:00,49.0,44.1,30.72,West,270,1.0,3.0,83,0.00,CLR,,0.00,WeatherDisplay:10.37,2013-10-04 10:40:00,
2013-10-04 03:50:00,49.9,45.3,30.71,West,270,2.0,4.0,84,0.00,CLR,,0.00,WeatherDisplay:10.37,2013-10-04 10:50:00,
2013-10-04 04:00:00,50.0,44.7,30.70,West,260,2.0,4.0,82,0.00,CLR,,0.00,WeatherDisplay:10.37,2013-10-04 11:00:00,
2013-10-04 04:10:00,50.0,44.4,30.70,WSW,247,2.0,4.0,81,0.00,CLR,,0.00,WeatherDisplay:10.37,2013-10-04 11:10:00,
2013-10-04 04:20:00,50.0,44.4,30.70,WSW,247,0.0,3.0,81,0.00,CLR,,0.00,WeatherDisplay:10.37,2013-10-04 11:20:00,
2013-10-04 04:30:00,48.0,42.8,30.70,SSE,164,0.0,3.0,82,0.00,CLR,,0.00,WeatherDisplay:10.37,2013-10-04 11:30:00,
2013-10-04 04:40:00,46.0,40.8,30.72,SE,135,0.0,1.0,82,0.00,CLR,,0.00,WeatherDisplay:10.37,2013-10-04 11:40:00,
2013-10-04 04:50:00,46.0,42.0,30.73,SE,135,0.0,2.0,86,0.00,CLR,,0.00,WeatherDisplay:10.37,2013-10-04 11:50:00,
2013-10-04 05:00:00,45.0,41.7,30.74,ENE,67,3.0,6.0,88,0.00,CLR,,0.00,WeatherDisplay:10.37,2013-10-04 12:00:00,
2013-10-04 05:10:00,45.0,42.0,30.74,ENE,67,0.0,3.0,89,0.00,CLR,,0.00,WeatherDisplay:10.37,2013-10-04 12:10:00,
2013-10-04 05:20:00,45.0,42.5,30.74,ENE,67,0.0,2.0,91,0.00,CLR,,0.00,WeatherDisplay:10.37,2013-10-04 12:20:00,
2013-10-04 05:30:00,45.0,42.8,30.74,ENE,67,0.0,2.0,92,0.00,CLR,,0.00,WeatherDisplay:10.37,2013-10-04 12:30:00,
2013-10-04 05:40:00,44.0,42.1,30.74,NNE,22,0.0,2.0,93,0.00,CLR,,0.00,WeatherDisplay:10.37,2013-10-04 12:40:00,
2013-10-04 05:50:00,44.0,42.1,30.75,NNE,22,0.0,0.0,93,0.00,CLR,,0.00,WeatherDisplay:10.37,2013-10-04 12:50:00,
2013-10-04 06:00:00,44.0,42.1,30.75,NNE,22,0.0,0.0,93,0.00,CLR,,0.00,WeatherDisplay:10.37,2013-10-04 13:00:00,
2013-10-04 06:10:00,43.0,41.4,30.76,NNE,22,0.0,0.0,94,0.00,CLR,,0.00,WeatherDisplay:10.37,2013-10-04 13:10:00,
2013-10-04 06:20:00,43.0,41.7,30.76,NNE,22,0.0,2.0,95,0.00,CLR,,0.00,WeatherDisplay:10.37,2013-10-04 13:20:00,
2013-10-04 06:30:00,43.9,42.6,30.77,NNE,22,1.0,2.0,95,0.00,CLR,,0.00,WeatherDisplay:10.37,2013-10-04 13:30:00,
2013-10-04 06:40:00,45.0,43.7,30.76,NNE,22,1.0,2.0,95,0.00,CLR,,0.00,WeatherDisplay:10.37,2013-10-04 13:40:00,
2013-10-04 06:50:00,47.0,45.6,30.75,NNE,22,1.0,2.0,95,0.00,CLR,,0.00,WeatherDisplay:10.37,2013-10-04 13:50:00,
2013-10-04 07:00:00,50.0,48.6,30.73,NNE,22,2.0,3.0,95,0.00,CLR,,0.00,WeatherDisplay:10.37,2013-10-04 14:00:00,
2013-10-04 07:10:00,53.0,50.1,30.71,NNE,22,3.0,6.0,90,0.00,CLR,,0.00,WeatherDisplay:10.37,2013-10-04 14:10:00,
2013-10-04 07:20:00,56.9,53.4,30.68,NNE,22,0.0,4.0,88,0.00,CLR,,0.00,WeatherDisplay:10.37,2013-10-04 14:20:00,
2013-10-04 07:30:00,59.0,54.8,30.67,NNE,22,0.0,4.0,86,0.00,CLR,,0.00,WeatherDisplay:10.37,2013-10-04 14:30:00,
2013-10-04 07:40:00,60.0,53.5,30.67,NNE,22,0.0,2.0,79,0.00,CLR,,0.00,WeatherDisplay:10.37,2013-10-04 14:40:00,
2013-10-04 07:50:00,59.0,50.7,30.67,ESE,107,1.0,4.0,74,0.00,CLR,,0.00,WeatherDisplay:10.37,2013-10-04 14:50:00,
2013-10-04 08:00:00,60.0,51.7,30.68,SSE,157,1.0,3.0,74,0.00,CLR,,0.00,WeatherDisplay:10.37,2013-10-04 15:00:00,
2013-10-04 08:10:00,62.0,52.1,30.67,ESE,106,0.0,3.0,70,0.00,CLR,,0.00,WeatherDisplay:10.37,2013-10-04 15:10:00,
2013-10-04 08:20:00,66.0,52.2,30.58,East,90,1.0,6.0,61,0.00,CLR,,0.00,WeatherDisplay:10.37,2013-10-04 15:20:00,
2013-10-04 08:30:00,69.0,52.2,30.52,ESE,102,1.0,6.0,55,0.00,CLR,,0.00,WeatherDisplay:10.37,2013-10-04 15:30:00,
2013-10-04 08:40:00,70.0,51.0,30.48,South,189,1.0,5.0,51,0.00,CLR,,0.00,WeatherDisplay:10.37,2013-10-04 15:40:00,
2013-10-04 08:50:00,72.0,51.2,30.47,SSE,162,1.0,7.0,48,0.00,CLR,,0.00,WeatherDisplay:10.37,2013-10-04 15:50:00,
2013-10-04 09:00:00,73.0,51.0,30.46,SSE,151,1.0,7.0,46,0.00,CLR,,0.00,WeatherDisplay:10.37,2013-10-04 16:00:00,
2013-10-04 09:10:00,73.0,49.8,30.45,SE,127,3.0,7.0,44,0.00,CLR,,0.00,WeatherDisplay:10.37,2013-10-04 16:10:00,
2013-10-04 09:20:00,74.0,50.1,30.45,SSE,161,3.0,7.0,43,0.00,CLR,,0.00,WeatherDisplay:10.37,2013-10-04 16:20:00,
2013-10-04 09:30:00,74.0,48.8,30.44,South,177,5.0,9.0,41,0.00,CLR,,0.00,WeatherDisplay:10.37,2013-10-04 16:30:00,
2013-10-04 09:40:00,75.0,49.0,30.43,SSW,192,5.0,9.0,40,0.00,CLR,,0.00,WeatherDisplay:10.37,2013-10-04 16:40:00,
2013-10-04 09:50:00,75.0,49.0,30.42,SSE,164,3.0,9.0,40,0.00,CLR,,0.00,WeatherDisplay:10.37,2013-10-04 16:50:00,
2013-10-04 10:00:00,75.0,47.0,30.41,SSE,157,5.0,12.0,37,0.00,CLR,,0.00,WeatherDisplay:10.37,2013-10-04 17:00:00,
2013-10-04 10:10:00,75.9,46.3,30.41,SSW,199,5.0,10.0,35,0.00,CLR,,0.00,WeatherDisplay:10.37,2013-10-04 17:10:00,
2013-10-04 10:20:00,76.0,43.2,30.41,South,171,5.0,10.0,31,0.00,CLR,,0.00,WeatherDisplay:10.37,2013-10-04 17:20:00,
2013-10-04 10:30:00,76.0,44.0,30.40,South,183,2.0,12.0,32,0.00,CLR,,0.00,WeatherDisplay:10.37,2013-10-04 17:30:00,
2013-10-04 11:00:00,78.0,43.2,30.38,South,172,6.0,12.0,29,0.00,CLR,,0.00,WeatherDisplay:10.37,2013-10-04 18:00:00,
2013-10-04 11:10:00,78.0,41.3,30.37,SSW,192,6.0,12.0,27,0.00,CLR,,0.00,WeatherDisplay:10.37,2013-10-04 18:10:00,
2013-10-04 11:20:00,78.0,42.2,30.37,WSW,246,5.0,10.0,28,0.00,CLR,,0.00,WeatherDisplay:10.37,2013-10-04 18:20:00,
2013-10-04 11:30:00,79.0,40.2,30.36,SSW,204,1.0,10.0,25,0.00,CLR,,0.00,WeatherDisplay:10.37,2013-10-04 18:30:00,
2013-10-04 11:40:00,79.0,40.2,30.34,SW,222,1.0,13.0,25,0.00,CLR,,0.00,WeatherDisplay:10.37,2013-10-04 18:40:00,
2013-10-04 11:50:00,79.0,34.5,30.33,SSW,211,7.0,13.0,20,0.00,CLR,,0.00,WeatherDisplay:10.37,2013-10-04 18:50:00,
2013-10-04 12:00:00,80.0,34.0,30.33,SSW,210,8.0,13.0,19,0.00,CLR,,0.00,WeatherDisplay:10.37,2013-10-04 19:00:00,
2013-10-04 12:10:00,79.0,34.5,30.34,SSW,196,6.0,14.0,20,0.00,CLR,,0.00,WeatherDisplay:10.37,2013-10-04 19:10:00,
2013-10-04 12:20:00,80.0,35.3,30.34,SW,226,8.0,13.0,20,0.00,CLR,,0.00,WeatherDisplay:10.37,2013-10-04 19:20:00,
2013-10-04 12:30:00,80.9,37.3,30.33,West,266,3.0,10.0,21,0.00,CLR,,0.00,WeatherDisplay:10.37,2013-10-04 19:30:00,
2013-10-04 12:40:00,80.1,36.6,30.31,SW,216,10.0,13.0,21,0.00,CLR,,0.00,WeatherDisplay:10.37,2013-10-04 19:40:00,
2013-10-04 12:50:00,81.0,37.4,30.32,WSW,256,7.0,12.0,21,0.00,CLR,,0.00,WeatherDisplay:10.37,2013-10-04 19:50:00,
2013-10-04 13:00:00,81.1,37.5,30.28,West,265,7.0,14.0,21,0.00,CLR,,0.00,WeatherDisplay:10.37,2013-10-04 20:00:00,
2013-10-04 13:10:00,81.0,36.1,30.30,WSW,238,5.0,10.0,20,0.00,CLR,,0.00,WeatherDisplay:10.37,2013-10-04 20:10:00,
2013-10-04 13:20:00,81.0,33.5,30.30,SW,218,8.0,12.0,18,0.00,CLR,,0.00,WeatherDisplay:10.37,2013-10-04 20:20:00,
2013-10-04 13:30:00,81.0,30.6,30.31,WSW,243,8.0,17.0,16,0.00,CLR,,0.00,WeatherDisplay:10.37,2013-10-04 20:30:00,
2013-10-04 13:40:00,81.0,30.6,30.19,SW,219,8.0,12.0,16,0.00,CLR,,0.00,WeatherDisplay:10.37,2013-10-04 20:40:00,
2013-10-04 13:50:00,81.9,31.3,30.23,SW,229,8.0,16.0,16,0.00,CLR,,0.00,WeatherDisplay:10.37,2013-10-04 20:50:00,
2013-10-04 14:00:00,82.0,31.4,30.30,WSW,240,3.0,12.0,16,0.00,CLR,,0.00,WeatherDisplay:10.37,2013-10-04 21:00:00,
2013-10-04 14:10:00,82.0,31.4,30.30,WSW,239,7.0,13.0,16,0.00,CLR,,0.00,WeatherDisplay:10.37,2013-10-04 21:10:00,
2013-10-04 14:20:00,83.0,32.2,30.31,West,262,7.0,14.0,16,0.00,CLR,,0.00,WeatherDisplay:10.37,2013-10-04 21:20:00,
2013-10-04 14:30:00,82.0,26.3,30.32,WNW,283,6.0,13.0,13,0.00,CLR,,0.00,WeatherDisplay:10.37,2013-10-04 21:30:00,
2013-10-04 14:40:00,83.0,32.2,30.32,WSW,245,9.0,13.0,16,0.00,CLR,,0.00,WeatherDisplay:10.37,2013-10-04 21:40:00,
2013-10-04 14:50:00,83.0,30.6,30.33,WSW,247,9.0,14.0,15,0.00,CLR,,0.00,WeatherDisplay:10.37,2013-10-04 21:50:00,
2013-10-04 15:00:00,83.0,30.6,30.34,WSW,252,8.0,14.0,15,0.00,CLR,,0.00,WeatherDisplay:10.37,2013-10-04 22:00:00,
2013-10-04 15:10:00,83.0,32.2,30.36,West,266,7.0,14.0,16,0.00,CLR,,0.00,WeatherDisplay:10.37,2013-10-04 22:10:00,
2013-10-04 15:20:00,82.0,31.4,30.25,WNW,285,8.0,16.0,16,0.00,CLR,,0.00,WeatherDisplay:10.37,2013-10-04 22:20:00,
2013-10-04 15:30:00,83.0,30.6,30.37,WSW,256,9.0,15.0,15,0.00,CLR,,0.00,WeatherDisplay:10.37,2013-10-04 22:30:00,
2013-10-04 15:40:00,83.0,32.2,30.38,West,266,9.0,15.0,16,0.00,CLR,,0.00,WeatherDisplay:10.37,2013-10-04 22:40:00,
2013-10-04 15:50:00,82.0,31.4,30.39,WSW,243,9.0,16.0,16,0.00,CLR,,0.00,WeatherDisplay:10.37,2013-10-04 22:50:00,
2013-10-04 16:00:00,82.0,31.4,30.40,West,263,9.0,14.0,16,0.00,CLR,,0.00,WeatherDisplay:10.37,2013-10-04 23:00:00,
2013-10-04 16:10:00,81.1,32.2,30.41,West,265,10.0,17.0,17,0.00,CLR,,0.00,WeatherDisplay:10.37,2013-10-04 23:10:00,
2013-10-04 16:20:00,81.0,33.5,30.43,West,263,8.0,14.0,18,0.00,CLR,,0.00,WeatherDisplay:10.37,2013-10-04 23:20:00,
2013-10-04 16:30:00,80.0,32.7,30.44,West,264,8.0,14.0,18,0.00,CLR,,0.00,WeatherDisplay:10.37,2013-10-04 23:30:00,
2013-10-04 16:40:00,80.0,32.7,30.44,West,265,8.0,12.0,18,0.00,CLR,,0.00,WeatherDisplay:10.37,2013-10-04 23:40:00,
2013-10-04 16:50:00,80.0,32.7,30.45,West,267,7.0,15.0,18,0.00,CLR,,0.00,WeatherDisplay:10.37,2013-10-04 23:50:00,
2013-10-04 17:00:00,79.0,34.5,30.46,West,276,8.0,15.0,20,0.00,CLR,,0.00,WeatherDisplay:10.37,2013-10-05 00:00:00,
2013-10-04 17:10:00,79.0,34.5,30.49,West,275,7.0,12.0,20,0.00,CLR,,0.00,WeatherDisplay:10.37,2013-10-05 00:10:00,
2013-10-04 17:20:00,78.0,33.7,30.50,West,267,6.0,10.0,20,0.00,CLR,,0.00,WeatherDisplay:10.37,2013-10-05 00:20:00,
2013-10-04 17:30:00,77.0,34.1,30.51,West,265,6.0,15.0,21,0.00,CLR,,0.00,WeatherDisplay:10.37,2013-10-05 00:30:00,
2013-10-04 17:40:00,76.0,36.6,30.53,West,275,6.0,12.0,24,0.00,CLR,,0.00,WeatherDisplay:10.37,2013-10-05 00:40:00,
2013-10-04 17:50:00,74.1,37.0,30.56,WNW,285,6.0,9.0,26,0.00,CLR,,0.00,WeatherDisplay:10.37,2013-10-05 00:50:00,
2013-10-04 18:00:00,72.1,39.0,30.58,WNW,288,7.0,9.0,30,0.00,CLR,,0.00,WeatherDisplay:10.37,2013-10-05 01:00:00,
2013-10-04 18:10:00,71.0,38.0,30.61,WNW,290,5.0,8.0,30,0.00,CLR,,0.00,WeatherDisplay:10.37,2013-10-05 01:10:00,
2013-10-04 18:20:00,70.0,38.0,30.62,WNW,289,3.0,8.0,31,0.00,CLR,,0.00,WeatherDisplay:10.37,2013-10-05 01:20:00,
2013-10-04 18:30:00,69.0,37.9,30.64,West,281,3.0,6.0,32,0.00,CLR,,0.00,WeatherDisplay:10.37,2013-10-05 01:30:00,
2013-10-04 18:40:00,68.0,37.8,30.64,WNW,292,2.0,6.0,33,0.00,CLR,,0.00,WeatherDisplay:10.37,2013-10-05 01:40:00,
2013-10-04 18:50:00,66.0,37.5,30.66,WNW,286,3.0,5.0,35,0.00,CLR,,0.00,WeatherDisplay:10.37,2013-10-05 01:50:00,
2013-10-04 19:00:00,67.8,37.7,30.67,WNW,288,5.0,9.0,33,0.00,CLR,,0.00,WeatherDisplay:10.37,2013-10-05 02:00:00,
2013-10-04 19:10:00,67.0,36.9,30.66,WNW,292,2.0,7.0,33,0.00,CLR,,0.00,WeatherDisplay:10.37,2013-10-05 02:10:00,
2013-10-04 19:20:00,65.1,36.8,30.67,WNW,292,2.0,6.0,35,0.00,CLR,,0.00,WeatherDisplay:10.37,2013-10-05 02:20:00,
2013-10-04 19:30:00,64.0,36.5,30.68,WNW,292,0.0,3.0,36,0.00,CLR,,0.00,WeatherDisplay:10.37,2013-10-05 02:30:00,
2013-10-04 19:40:00,63.0,35.6,30.68,WNW,292,1.0,2.0,36,0.00,CLR,,0.00,WeatherDisplay:10.37,2013-10-05 02:40:00,
2013-10-04 19:50:00,64.0,37.2,30.70,West,275,2.0,6.0,37,0.00,CLR,,0.00,WeatherDisplay:10.37,2013-10-05 02:50:00,
2013-10-04 20:00:00,65.0,36.7,30.69,West,270,2.0,7.0,35,0.00,CLR,,0.00,WeatherDisplay:10.37,2013-10-05 03:00:00,
2013-10-04 20:10:00,66.0,36.8,30.69,West,278,5.0,8.0,34,0.00,CLR,,0.00,WeatherDisplay:10.37,2013-10-05 03:10:00,
2013-10-04 20:20:00,65.0,38.1,30.69,WNW,292,0.0,6.0,37,0.00,CLR,,0.00,WeatherDisplay:10.37,2013-10-05 03:20:00,
2013-10-04 20:30:00,61.0,36.5,30.71,WNW,292,0.0,0.0,40,0.00,CLR,,0.00,WeatherDisplay:10.37,2013-10-05 03:30:00,
2013-10-04 20:40:00,59.0,36.5,30.73,WNW,292,1.0,3.0,43,0.00,CLR,,0.00,WeatherDisplay:10.37,2013-10-05 03:40:00,
2013-10-04 20:50:00,58.0,37.3,30.74,WNW,292,1.0,3.0,46,0.00,CLR,,0.00,WeatherDisplay:10.37,2013-10-05 03:50:00,
2013-10-04 21:00:00,57.0,37.0,30.74,WNW,292,0.0,3.0,47,0.00,CLR,,0.00,WeatherDisplay:10.37,2013-10-05 04:00:00,
2013-10-04 21:10:00,56.0,37.1,30.75,WNW,292,0.0,2.0,49,0.00,CLR,,0.00,WeatherDisplay:10.37,2013-10-05 04:10:00,
2013-10-04 21:20:00,55.0,38.6,30.76,NW,313,0.0,1.0,54,0.00,CLR,,0.00,WeatherDisplay:10.37,2013-10-05 04:20:00,
2013-10-04 21:30:00,53.0,37.3,30.77,North,360,0.0,1.0,55,0.00,CLR,,0.00,WeatherDisplay:10.37,2013-10-05 04:30:00,
2013-10-04 21:40:00,52.0,37.2,30.78,North,360,0.0,0.0,57,0.00,CLR,,0.00,WeatherDisplay:10.37,2013-10-05 04:40:00,
2013-10-04 21:50:00,52.0,37.7,30.78,North,360,0.0,0.0,58,0.00,CLR,,0.00,WeatherDisplay:10.37,2013-10-05 04:50:00,
2013-10-04 22:00:00,51.8,38.4,30.78,North,360,0.0,0.0,60,0.00,CLR,,0.00,WeatherDisplay:10.37,2013-10-05 05:00:00,
2013-10-04 22:10:00,51.0,38.4,30.79,NE,45,2.0,6.0,62,0.00,CLR,,0.00,WeatherDisplay:10.37,2013-10-05 05:10:00,
2013-10-04 22:20:00,51.0,38.4,30.80,NE,45,1.0,5.0,62,0.00,CLR,,0.00,WeatherDisplay:10.37,2013-10-05 05:20:00,
2013-10-04 22:30:00,51.0,38.8,30.79,NE,45,1.0,4.0,63,0.00,CLR,,0.00,WeatherDisplay:10.37,2013-10-05 05:30:00,
2013-10-04 22:40:00,50.2,38.4,30.79,NE,45,0.0,2.0,64,0.00,CLR,,0.00,WeatherDisplay:10.37,2013-10-05 05:40:00,
2013-10-04 22:50:00,50.0,39.1,30.80,NNE,29,0.0,2.0,66,0.00,CLR,,0.00,WeatherDisplay:10.37,2013-10-05 05:50:00,
2013-10-04 23:00:00,51.0,39.6,30.80,NNE,22,0.0,2.0,65,0.00,CLR,,0.00,WeatherDisplay:10.37,2013-10-05 06:00:00,
2013-10-04 23:10:00,51.0,38.8,30.80,NNE,22,0.0,1.0,63,0.00,CLR,,0.00,WeatherDisplay:10.37,2013-10-05 06:10:00,
2013-10-04 23:20:00,50.0,38.3,30.80,NE,44,0.0,3.0,64,0.00,CLR,,0.00,WeatherDisplay:10.37,2013-10-05 06:20:00,
2013-10-04 23:30:00,48.1,37.3,30.81,ENE,67,0.0,4.0,66,0.00,CLR,,0.00,WeatherDisplay:10.37,2013-10-05 06:30:00,
2013-10-04 23:40:00,47.0,37.0,30.82,ENE,67,0.0,0.0,68,0.00,CLR,,0.00,WeatherDisplay:10.37,2013-10-05 06:40:00,
2013-10-04 23:50:00,46.0,36.4,30.82,ENE,67,0.0,0.0,69,0.00,CLR,,0.00,WeatherDisplay:10.37,2013-10-05 06:50:00,